createdAt,value
2019-05-01T00:02:01.329Z,69.14
2019-05-01T00:04:37.937Z,69.29
2019-05-01T00:07:07.720Z,69.55
2019-05-01T00:09:34.082Z,69.46
2019-05-01T00:11:59.654Z,68.97
2019-05-01T00:14:25.526Z,68.73
2019-05-01T00:16:51.038Z,68.87
2019-05-01T00:19:16.817Z,69.23
2019-05-01T00:21:42.298Z,69.05
2019-05-01T00:24:07.773Z,69.10
2019-05-01T00:26:33.249Z,69.28
2019-05-01T00:28:58.734Z,69.61
2019-05-01T00:31:24.145Z,69.69
2019-05-01T00:33:49.587Z,69.59
2019-05-01T00:36:15.056Z,69.82
2019-05-01T00:38:40.533Z,69.46
2019-05-01T00:41:06.001Z,69.97
2019-05-01T00:43:31.750Z,70.15
2019-05-01T00:45:57.332Z,69.95
2019-05-01T00:48:22.787Z,69.80
2019-05-01T00:50:51.449Z,70.10
2019-05-01T00:53:17.017Z,70.16
2019-05-01T00:55:51.837Z,69.95
2019-05-01T00:58:23.729Z,70.30
2019-05-01T01:01:08.341Z,70.33
2019-05-01T01:03:34.250Z,70.40
2019-05-01T01:05:59.575Z,70.45
2019-05-01T01:08:25.049Z,70.71
2019-05-01T01:10:50.740Z,70.72
2019-05-01T01:13:16.195Z,70.80
2019-05-01T01:15:41.575Z,70.55
2019-05-01T01:18:07.022Z,70.68
2019-05-01T01:20:32.483Z,71.17
2019-05-01T01:22:58.043Z,71.33
2019-05-01T01:25:23.509Z,71.14
2019-05-01T01:27:48.965Z,70.60
2019-05-01T01:30:15.026Z,70.91
2019-05-01T01:32:40.458Z,71.89
2019-05-01T01:35:06.643Z,71.97
2019-05-01T01:37:32.101Z,71.31
2019-05-01T01:39:57.951Z,71.43
2019-05-01T01:42:24.120Z,71.26
2019-05-01T01:44:56.200Z,71.56
2019-05-01T01:47:21.644Z,71.66
2019-05-01T01:49:47.096Z,71.62
2019-05-01T01:52:13.661Z,71.53
2019-05-01T01:54:39.395Z,71.83
2019-05-01T01:57:05.076Z,71.65
2019-05-01T01:59:31.559Z,71.80
2019-05-01T02:02:15.982Z,72.08
2019-05-01T02:04:52.706Z,73.09
2019-05-01T02:07:18.290Z,72.78
2019-05-01T02:09:43.795Z,72.85
2019-05-01T02:12:09.279Z,72.34
2019-05-01T02:14:34.855Z,72.58
2019-05-01T02:17:00.626Z,72.49
2019-05-01T02:19:26.384Z,72.62
2019-05-01T02:21:51.873Z,72.43
2019-05-01T02:24:17.305Z,73.30
2019-05-01T02:26:46.344Z,73.06
2019-05-01T02:29:29.779Z,72.98
2019-05-01T02:31:57.471Z,71.68
2019-05-01T02:34:25.923Z,72.31
2019-05-01T02:36:54.756Z,72.14
2019-05-01T02:39:24.895Z,72.50
2019-05-01T02:41:55.143Z,72.50
2019-05-01T02:44:31.979Z,72.62
2019-05-01T02:47:01.964Z,72.70
2019-05-01T02:49:43.792Z,72.40
2019-05-01T02:52:13.335Z,72.97
2019-05-01T02:54:40.640Z,72.87
2019-05-01T02:57:14.659Z,73.51
2019-05-01T02:59:43.980Z,73.48
2019-05-01T03:02:10.897Z,72.98
2019-05-01T03:04:37.096Z,72.75
2019-05-01T03:07:04.221Z,72.62
2019-05-01T03:09:30.772Z,73.14
2019-05-01T03:11:58.922Z,72.59
2019-05-01T03:14:28.903Z,72.60
2019-05-01T03:16:59.048Z,72.54
2019-05-01T03:19:44.852Z,73.30
2019-05-01T03:22:24.827Z,73.07
2019-05-01T03:24:50.283Z,73.09
2019-05-01T03:27:16.650Z,73.04
2019-05-01T03:29:42.583Z,73.80
2019-05-01T03:32:19.050Z,73.72
2019-05-01T03:34:35.232Z,73.32
2019-05-01T03:37:01.273Z,73.46
2019-05-01T03:39:27.049Z,73.73
2019-05-01T03:41:53.405Z,73.79
2019-05-01T03:44:20.151Z,73.53
2019-05-01T03:46:45.810Z,73.08
2019-05-01T03:49:12.150Z,72.92
2019-05-01T03:51:37.976Z,73.20
2019-05-01T03:54:04.386Z,73.33
2019-05-01T03:56:30.527Z,74.02
2019-05-01T03:58:56.177Z,74.15
2019-05-01T04:01:42.230Z,75.09
2019-05-01T04:04:11.618Z,75.26
2019-05-01T04:06:39.493Z,78.20
2019-05-01T04:09:05.912Z,79.10
2019-05-01T04:11:31.467Z,80.07
2019-05-01T04:13:58.253Z,78.73
2019-05-01T04:16:24.234Z,78.19
2019-05-01T04:18:50.087Z,79.50
2019-05-01T04:21:15.906Z,80.87
2019-05-01T04:23:43.620Z,80.14
2019-05-01T04:26:10.009Z,80.13
2019-05-01T04:29:03.930Z,79.29
2019-05-01T04:31:37.769Z,79.73
2019-05-01T04:34:07.425Z,79.07
2019-05-01T04:36:37.879Z,80.42
2019-05-01T04:39:04.798Z,80.07
2019-05-01T04:41:30.464Z,79.39
2019-05-01T04:43:56.006Z,78.44
2019-05-01T04:46:22.444Z,77.99
2019-05-01T04:48:47.895Z,78.23
2019-05-01T04:51:13.671Z,79.50
2019-05-01T04:53:39.113Z,81.23
2019-05-01T04:56:05.271Z,80.66
2019-05-01T04:58:31.407Z,79.91
2019-05-01T05:00:57.571Z,79.20
2019-05-01T05:03:25.113Z,79.96
2019-05-01T05:05:51.170Z,79.56
2019-05-01T05:08:17.964Z,79.40
2019-05-01T05:10:43.639Z,80.34
2019-05-01T05:13:29.424Z,80.12
2019-05-01T05:16:19.519Z,79.87
2019-05-01T05:18:45.269Z,79.32
2019-05-01T05:21:12.342Z,79.13
2019-05-01T05:23:38.953Z,80.64
2019-05-01T05:26:04.822Z,81.14
2019-05-01T05:28:31.503Z,80.50
2019-05-01T05:30:58.181Z,79.30
2019-05-01T05:33:25.058Z,79.39
2019-05-01T05:35:52.843Z,79.97
2019-05-01T05:38:33.508Z,80.24
2019-05-01T05:41:01.260Z,79.91
2019-05-01T05:43:26.703Z,79.86
2019-05-01T05:45:52.248Z,80.53
2019-05-01T05:48:17.988Z,80.50
2019-05-01T05:50:58.577Z,80.66
2019-05-01T05:53:29.950Z,81.42
2019-05-01T05:55:59.901Z,81.91
2019-05-01T05:58:37.028Z,82.31
2019-05-01T06:01:13.270Z,81.14
2019-05-01T06:04:07.115Z,79.42
2019-05-01T06:06:47.970Z,80.07
2019-05-01T06:09:16.036Z,81.87
2019-05-01T06:12:17.045Z,81.33
2019-05-01T06:14:51.346Z,80.99
2019-05-01T06:17:39.060Z,81.04
2019-05-01T06:20:29.850Z,81.36
2019-05-01T06:23:20.727Z,81.53
2019-05-01T06:25:54.191Z,80.21
2019-05-01T06:28:19.854Z,79.74
2019-05-01T06:30:47.004Z,79.64
2019-05-01T06:33:13.225Z,81.33
2019-05-01T06:35:39.417Z,81.29
2019-05-01T06:38:14.553Z,80.50
2019-05-01T06:40:44.677Z,80.36
2019-05-01T06:43:25.222Z,80.61
2019-05-01T06:45:53.382Z,81.01
2019-05-01T06:48:20.184Z,80.77
2019-05-01T06:51:17.893Z,80.61
2019-05-01T06:53:41.581Z,79.93
2019-05-01T06:56:07.080Z,79.55
2019-05-01T06:58:32.927Z,80.16
2019-05-01T07:00:58.406Z,80.41
2019-05-01T07:03:24.095Z,79.53
2019-05-01T07:05:54.412Z,79.29
2019-05-01T07:08:24.430Z,79.50
2019-05-01T07:10:46.607Z,80.30
2019-05-01T07:13:12.156Z,79.71
2019-05-01T07:15:37.851Z,80.08
2019-05-01T07:18:04.659Z,79.42
2019-05-01T07:20:51.379Z,79.19
2019-05-01T07:23:19.850Z,79.42
2019-05-01T07:25:45.445Z,80.74
2019-05-01T07:28:11.675Z,80.43
2019-05-01T07:30:54.924Z,79.52
2019-05-01T07:33:17.933Z,79.27
2019-05-01T07:35:45.730Z,79.09
2019-05-01T07:38:11.544Z,79.92
2019-05-01T07:40:37.709Z,81.30
2019-05-01T07:43:10.969Z,80.66
2019-05-01T07:45:54.457Z,79.68
2019-05-01T07:48:31.319Z,79.34
2019-05-01T07:50:56.769Z,79.53
2019-05-01T07:53:23.729Z,79.54
2019-05-01T07:55:52.705Z,80.96
2019-05-01T07:58:18.212Z,80.74
2019-05-01T08:00:52.145Z,79.86
2019-05-01T08:03:17.622Z,79.95
2019-05-01T08:05:45.455Z,79.70
2019-05-01T08:08:10.693Z,79.71
2019-05-01T08:10:36.130Z,79.45
2019-05-01T08:13:01.976Z,79.41
2019-05-01T08:15:32.395Z,79.16
2019-05-01T08:17:57.152Z,78.93
2019-05-01T08:20:31.584Z,78.86
2019-05-01T08:22:57.434Z,79.65
2019-05-01T08:25:22.811Z,79.85
2019-05-01T08:27:58.081Z,80.40
2019-05-01T08:30:42.638Z,79.91
2019-05-01T08:33:49.813Z,79.37
2019-05-01T08:36:13.495Z,78.01
2019-05-01T08:38:39.017Z,78.72
2019-05-01T08:41:04.534Z,79.57
2019-05-01T08:43:30.461Z,79.87
2019-05-01T08:46:21.075Z,80.32
2019-05-01T08:48:54.320Z,80.09
2019-05-01T08:51:19.784Z,79.61
2019-05-01T08:53:45.353Z,78.71
2019-05-01T08:56:11.077Z,78.57
2019-05-01T08:58:37.177Z,79.02
2019-05-01T09:01:05.124Z,80.51
2019-05-01T09:03:31.045Z,80.03
2019-05-01T09:05:57.365Z,79.68
2019-05-01T09:08:27.077Z,79.36
2019-05-01T09:10:54.780Z,78.44
2019-05-01T09:13:18.965Z,78.32
2019-05-01T09:15:48.281Z,78.21
2019-05-01T09:18:12.293Z,77.48
2019-05-01T09:20:39.523Z,77.23
2019-05-01T09:23:05.160Z,78.08
2019-05-01T09:25:38.082Z,78.60
2019-05-01T09:28:22.478Z,79.65
2019-05-01T09:31:01.552Z,78.43
2019-05-01T09:33:21.101Z,78.33
2019-05-01T09:35:46.793Z,78.07
2019-05-01T09:38:12.297Z,78.68
2019-05-01T09:40:37.756Z,78.46
2019-05-01T09:43:03.135Z,77.51
2019-05-01T09:45:28.699Z,78.33
2019-05-01T09:47:54.246Z,78.69
2019-05-01T09:50:19.671Z,78.87
2019-05-01T09:53:01.521Z,78.41
2019-05-01T09:55:45.870Z,77.66
2019-05-01T09:58:11.472Z,77.70
2019-05-01T10:00:37.274Z,78.22
2019-05-01T10:03:02.722Z,77.92
2019-05-01T10:05:29.234Z,78.85
2019-05-01T10:07:54.941Z,77.85
2019-05-01T10:10:20.572Z,77.49
2019-05-01T10:12:46.912Z,77.41
2019-05-01T10:15:13.624Z,76.99
2019-05-01T10:17:39.820Z,76.35
2019-05-01T10:20:05.924Z,76.86
2019-05-01T10:22:32.930Z,77.17
2019-05-01T10:24:58.746Z,76.61
2019-05-01T10:27:30.966Z,76.34
2019-05-01T10:30:13.222Z,76.43
2019-05-01T10:32:45.146Z,76.28
2019-05-01T10:35:26.863Z,76.51
2019-05-01T10:37:52.493Z,76.85
2019-05-01T10:40:18.338Z,76.48
2019-05-01T10:42:44.068Z,76.80
2019-05-01T10:45:09.883Z,75.62
2019-05-01T10:47:35.475Z,75.85
2019-05-01T10:50:01.201Z,75.53
2019-05-01T10:52:26.748Z,75.52
2019-05-01T10:54:52.312Z,75.50
2019-05-01T10:57:17.950Z,76.42
2019-05-01T10:59:43.556Z,76.14
2019-05-01T11:02:10.991Z,75.99
2019-05-01T11:04:37.041Z,74.61
2019-05-01T11:07:02.607Z,75.17
2019-05-01T11:09:28.167Z,75.39
2019-05-01T11:11:53.706Z,75.34
2019-05-01T11:14:19.390Z,75.99
2019-05-01T11:16:44.964Z,75.21
2019-05-01T11:19:10.506Z,75.11
2019-05-01T11:21:36.077Z,74.79
2019-05-01T11:24:02.050Z,74.73
2019-05-01T11:26:27.716Z,73.68
2019-05-01T11:28:53.331Z,74.04
2019-05-01T11:31:23.077Z,74.00
2019-05-01T11:34:08.342Z,72.99
2019-05-01T11:36:47.532Z,71.85
2019-05-01T11:39:26.534Z,73.59
2019-05-01T11:41:57.538Z,73.00
2019-05-01T11:44:23.564Z,72.88
2019-05-01T11:46:49.169Z,73.27
2019-05-01T11:49:14.719Z,73.64
2019-05-01T11:51:40.320Z,72.60
2019-05-01T11:54:06.126Z,72.73
2019-05-01T11:56:34.633Z,72.20
2019-05-01T11:59:00.227Z,72.93
2019-05-01T12:01:26.928Z,73.56
2019-05-01T12:03:52.416Z,73.17
2019-05-01T12:06:22.892Z,72.70
2019-05-01T12:08:45.287Z,72.21
2019-05-01T12:11:12.246Z,73.06
2019-05-01T12:13:43.970Z,72.47
2019-05-01T12:16:12.720Z,72.66
2019-05-01T12:18:38.113Z,71.59
2019-05-01T12:21:03.586Z,72.55
2019-05-01T12:23:29.584Z,71.59
2019-05-01T12:25:55.153Z,72.46
2019-05-01T12:28:20.736Z,71.96
2019-05-01T12:30:46.246Z,71.77
2019-05-01T12:33:11.864Z,71.76
2019-05-01T12:35:37.374Z,72.30
2019-05-01T12:38:04.099Z,71.68
2019-05-01T12:40:29.631Z,70.62
2019-05-01T12:42:55.231Z,70.22
2019-05-01T12:45:21.455Z,70.25
2019-05-01T12:47:50.012Z,70.70
2019-05-01T12:50:15.632Z,69.63
2019-05-01T12:52:58.661Z,70.02
2019-05-01T12:55:58.200Z,70.88
2019-05-01T12:58:23.782Z,69.58
2019-05-01T13:00:52.157Z,70.63
2019-05-01T13:03:17.662Z,69.05
2019-05-01T13:05:43.192Z,69.93
2019-05-01T13:08:08.676Z,69.71
2019-05-01T13:10:34.197Z,69.10
2019-05-01T13:12:59.711Z,69.54
2019-05-01T13:15:25.235Z,68.44
2019-05-01T13:17:51.394Z,67.35
2019-05-01T13:20:17.254Z,67.13
2019-05-01T13:22:42.988Z,67.20
2019-05-01T13:25:08.785Z,67.81
2019-05-01T13:27:41.808Z,69.52
2019-05-01T13:30:27.136Z,68.01
2019-05-01T13:32:53.645Z,67.96
2019-05-01T13:35:19.544Z,67.29
2019-05-01T13:37:45.082Z,67.86
2019-05-01T13:40:12.433Z,67.15
2019-05-01T13:42:38.176Z,68.19
2019-05-01T13:45:04.179Z,66.24
2019-05-01T13:47:29.726Z,66.65
2019-05-01T13:49:55.306Z,66.59
2019-05-01T13:52:20.764Z,64.73
2019-05-01T13:54:46.267Z,64.76
2019-05-01T13:57:12.040Z,64.89
2019-05-01T13:59:37.572Z,65.41
2019-05-01T14:02:03.149Z,64.92
2019-05-01T14:04:30.475Z,65.44
2019-05-01T14:06:59.184Z,64.52
2019-05-01T14:09:29.307Z,64.29
2019-05-01T14:11:55.007Z,64.64
2019-05-01T14:14:20.466Z,62.21
2019-05-01T14:16:45.960Z,64.04
2019-05-01T14:19:11.429Z,64.08
2019-05-01T14:21:42.379Z,62.48
2019-05-01T14:24:31.032Z,62.40
2019-05-01T14:26:56.503Z,63.04
2019-05-01T14:29:21.939Z,62.89
2019-05-01T14:31:47.392Z,63.45
2019-05-01T14:34:12.912Z,63.26
2019-05-01T14:36:38.277Z,64.38
2019-05-01T14:39:05.776Z,62.94
2019-05-01T14:41:36.146Z,63.84
2019-05-01T14:44:01.741Z,63.46
2019-05-01T14:46:27.223Z,63.67
2019-05-01T14:48:52.873Z,63.75
2019-05-01T14:51:21.451Z,63.25
2019-05-01T14:53:45.615Z,61.64
2019-05-01T14:56:11.551Z,63.03
2019-05-01T14:58:37.085Z,63.08
2019-05-01T15:01:02.592Z,61.46
2019-05-01T15:03:28.150Z,61.76
2019-05-01T15:05:53.649Z,61.13
2019-05-01T15:08:19.191Z,61.89
2019-05-01T15:10:44.639Z,61.41
2019-05-01T15:13:28.252Z,61.17
2019-05-01T15:16:00.037Z,61.25
2019-05-01T15:18:33.180Z,61.40
2019-05-01T15:20:58.840Z,61.29
2019-05-01T15:23:24.278Z,61.51
2019-05-01T15:25:50.004Z,61.49
2019-05-01T15:28:15.685Z,61.53
2019-05-01T15:30:41.167Z,62.46
2019-05-01T15:33:06.623Z,62.03
2019-05-01T15:35:35.254Z,61.46
2019-05-01T15:38:00.677Z,61.40
2019-05-01T15:40:31.969Z,60.77
2019-05-01T15:43:01.888Z,61.20
2019-05-01T15:45:27.387Z,60.60
2019-05-01T15:47:52.720Z,61.43
2019-05-01T15:50:18.424Z,61.48
2019-05-01T15:52:43.929Z,60.21
2019-05-01T15:55:09.928Z,59.26
2019-05-01T15:57:35.501Z,60.50
2019-05-01T16:00:01.079Z,60.41
2019-05-01T16:02:33.394Z,60.37
2019-05-01T16:05:00.840Z,60.84
2019-05-01T16:07:40.113Z,60.16
2019-05-01T16:10:09.129Z,60.07
2019-05-01T16:12:39.835Z,60.74
2019-05-01T16:15:09.402Z,60.65
2019-05-01T16:17:34.952Z,59.82
2019-05-01T16:20:01.069Z,59.25
2019-05-01T16:22:26.806Z,59.55
2019-05-01T16:24:52.999Z,59.72
2019-05-01T16:27:19.318Z,60.58
2019-05-01T16:29:44.815Z,60.99
2019-05-01T16:32:11.058Z,60.20
2019-05-01T16:34:37.252Z,60.38
2019-05-01T16:37:03.056Z,60.42
2019-05-01T16:39:50.259Z,60.44
2019-05-01T16:42:15.753Z,59.88
2019-05-01T16:44:41.240Z,59.02
2019-05-01T16:47:06.703Z,58.95
2019-05-01T16:49:32.193Z,59.10
2019-05-01T16:51:57.689Z,59.46
2019-05-01T16:54:23.267Z,59.21
2019-05-01T16:56:48.779Z,58.83
2019-05-01T16:59:14.288Z,58.42
2019-05-01T17:01:58.421Z,58.64
2019-05-01T17:04:32.620Z,58.45
2019-05-01T17:07:16.884Z,59.74
2019-05-01T17:10:10.207Z,58.46
2019-05-01T17:12:42.746Z,58.34
2019-05-01T17:15:10.663Z,58.51
2019-05-01T17:17:36.362Z,58.89
2019-05-01T17:20:01.903Z,59.74
2019-05-01T17:22:27.386Z,59.42
2019-05-01T17:24:52.804Z,59.68
2019-05-01T17:27:18.462Z,58.88
2019-05-01T17:29:43.887Z,57.29
2019-05-01T17:32:11.229Z,57.69
2019-05-01T17:34:36.986Z,59.30
2019-05-01T17:37:02.703Z,58.03
2019-05-01T17:39:28.361Z,58.15
2019-05-01T17:41:57.558Z,58.06
2019-05-01T17:44:25.362Z,58.04
2019-05-01T17:46:48.725Z,58.50
2019-05-01T17:49:14.609Z,58.40
2019-05-01T17:51:42.765Z,58.03
2019-05-01T17:54:08.095Z,58.18
2019-05-01T17:56:33.731Z,57.35
2019-05-01T17:58:59.926Z,58.77
2019-05-01T18:01:43.625Z,59.92
2019-05-01T18:04:24.124Z,58.28
2019-05-01T18:06:51.090Z,58.17
2019-05-01T18:09:17.883Z,58.41
2019-05-01T18:11:47.264Z,59.54
2019-05-01T18:14:11.621Z,59.09
2019-05-01T18:16:37.313Z,60.13
2019-05-01T18:19:03.246Z,60.76
2019-05-01T18:21:29.568Z,61.08
2019-05-01T18:24:14.269Z,61.39
2019-05-01T18:26:48.791Z,61.64
2019-05-01T18:29:23.924Z,62.74
2019-05-01T18:31:50.245Z,62.83
2019-05-01T18:34:16.074Z,62.61
2019-05-01T18:36:47.893Z,63.05
2019-05-01T18:39:22.075Z,63.19
2019-05-01T18:41:50.915Z,63.28
2019-05-01T18:44:17.012Z,63.81
2019-05-01T18:46:43.252Z,64.08
2019-05-01T18:49:09.163Z,64.09
2019-05-01T18:51:36.122Z,64.15
2019-05-01T18:54:02.527Z,64.67
2019-05-01T18:56:28.630Z,64.72
2019-05-01T18:58:55.706Z,64.60
2019-05-01T19:01:21.904Z,65.05
2019-05-01T19:03:48.151Z,65.13
2019-05-01T19:06:14.525Z,64.80
2019-05-01T19:08:40.785Z,65.47
2019-05-01T19:11:12.673Z,65.99
2019-05-01T19:13:36.137Z,66.09
2019-05-01T19:16:03.294Z,66.26
2019-05-01T19:18:30.925Z,66.80
2019-05-01T19:20:59.710Z,67.08
2019-05-01T19:23:27.740Z,67.33
2019-05-01T19:25:56.363Z,66.71
2019-05-01T19:28:23.128Z,66.87
2019-05-01T19:30:49.546Z,66.84
2019-05-01T19:33:15.697Z,66.92
2019-05-01T19:35:44.362Z,67.60
2019-05-01T19:38:11.211Z,67.30
2019-05-01T19:40:39.017Z,68.02
2019-05-01T19:43:06.289Z,66.64
2019-05-01T19:45:32.655Z,66.79
2019-05-01T19:47:59.555Z,66.39
2019-05-01T19:50:26.426Z,66.21
2019-05-01T19:52:52.751Z,66.24
2019-05-01T19:55:18.850Z,66.95
2019-05-01T19:57:45.287Z,67.18
2019-05-01T20:00:13.937Z,67.03
2019-05-01T20:02:40.707Z,67.45
2019-05-01T20:05:10.973Z,67.38
2019-05-01T20:07:36.754Z,67.73
2019-05-01T20:10:03.217Z,67.10
2019-05-01T20:12:29.951Z,67.52
2019-05-01T20:14:56.264Z,67.52
2019-05-01T20:17:22.981Z,67.31
2019-05-01T20:19:49.592Z,67.43
2019-05-01T20:22:16.212Z,66.70
2019-05-01T20:24:44.342Z,67.05
2019-05-01T20:27:10.578Z,67.12
2019-05-01T20:29:36.963Z,65.88
2019-05-01T20:32:03.400Z,66.51
2019-05-01T20:34:29.545Z,66.15
2019-05-01T20:36:56.084Z,65.69
2019-05-01T20:39:23.760Z,65.53
2019-05-01T20:41:54.039Z,65.13
2019-05-01T20:44:23.953Z,65.23
2019-05-01T20:46:49.511Z,64.97
2019-05-01T20:49:15.667Z,65.58
2019-05-01T20:51:41.659Z,65.67
2019-05-01T20:54:07.533Z,65.89
2019-05-01T20:56:42.056Z,65.85
2019-05-01T20:59:08.068Z,66.04
2019-05-01T21:01:34.027Z,66.76
2019-05-01T21:04:19.374Z,67.09
2019-05-01T21:06:43.750Z,67.17
2019-05-01T21:09:16.239Z,67.57
2019-05-01T21:11:47.507Z,67.56
2019-05-01T21:14:21.986Z,67.49
2019-05-01T21:16:39.679Z,67.76
2019-05-01T21:19:05.406Z,67.73
2019-05-01T21:21:31.033Z,67.84
2019-05-01T21:23:56.809Z,67.87
2019-05-01T21:26:23.411Z,67.60
2019-05-01T21:28:49.013Z,67.73
2019-05-01T21:31:14.572Z,67.86
2019-05-01T21:33:40.841Z,67.97
2019-05-01T21:36:08.589Z,68.41
2019-05-01T21:38:34.200Z,67.81
2019-05-01T21:40:59.651Z,67.71
2019-05-01T21:43:27.939Z,68.03
2019-05-01T21:45:53.467Z,67.77
2019-05-01T21:48:19.064Z,67.78
2019-05-01T21:50:44.492Z,68.09
2019-05-01T21:53:10.115Z,67.77
2019-05-01T21:55:36.249Z,67.83
2019-05-01T21:58:01.827Z,68.41
2019-05-01T22:00:29.690Z,68.53
2019-05-01T22:02:55.225Z,68.49
2019-05-01T22:05:20.806Z,68.37
2019-05-01T22:07:46.473Z,68.50
2019-05-01T22:10:12.605Z,68.42
2019-05-01T22:12:38.115Z,68.75
2019-05-01T22:15:11.027Z,68.60
2019-05-01T22:17:53.415Z,68.43
2019-05-01T22:20:23.724Z,68.96
2019-05-01T22:22:53.890Z,69.26
2019-05-01T22:25:26.835Z,69.72
2019-05-01T22:27:58.185Z,69.08
2019-05-01T22:30:30.530Z,69.23
2019-05-01T22:32:56.635Z,69.86
2019-05-01T22:35:24.715Z,69.35
2019-05-01T22:37:50.244Z,68.89
2019-05-01T22:40:17.975Z,69.62
2019-05-01T22:42:43.526Z,69.76
2019-05-01T22:45:11.212Z,69.27
2019-05-01T22:47:36.742Z,69.57
2019-05-01T22:50:02.218Z,69.47
2019-05-01T22:52:27.698Z,69.42
2019-05-01T22:54:53.156Z,69.53
2019-05-01T22:57:20.506Z,70.15
2019-05-01T22:59:46.052Z,70.01
2019-05-01T23:02:24.246Z,70.03
2019-05-01T23:04:52.066Z,69.82
2019-05-01T23:07:18.620Z,69.60
2019-05-01T23:09:44.189Z,70.32
2019-05-01T23:12:09.694Z,70.83
2019-05-01T23:14:35.601Z,69.96
2019-05-01T23:17:10.379Z,70.54
2019-05-01T23:19:35.853Z,70.78
2019-05-01T23:22:01.595Z,70.91
2019-05-01T23:24:27.073Z,71.11
2019-05-01T23:26:53.061Z,71.28
2019-05-01T23:29:18.641Z,70.93
2019-05-01T23:31:44.278Z,71.04
2019-05-01T23:34:09.805Z,70.85
2019-05-01T23:36:35.612Z,70.59
2019-05-01T23:39:01.174Z,71.58
2019-05-01T23:41:44.578Z,71.09
2019-05-01T23:43:58.210Z,70.59
2019-05-01T23:46:21.776Z,71.25
2019-05-01T23:48:47.251Z,71.63
2019-05-01T23:51:12.788Z,72.06
2019-05-01T23:53:38.227Z,72.67
2019-05-01T23:56:03.691Z,72.21
2019-05-01T23:58:29.410Z,71.83
